createdAt,value
2022-09-17T00:00:47.974Z,71.67
2022-09-17T00:01:48.172Z,71.47
2022-09-17T00:02:48.318Z,71.47
2022-09-17T00:03:48.455Z,71.26
2022-09-17T00:04:48.624Z,71.37
2022-09-17T00:05:48.775Z,71.47
2022-09-17T00:06:48.974Z,71.47
2022-09-17T00:07:49.132Z,71.47
2022-09-17T00:08:49.339Z,71.47
2022-09-17T00:09:49.494Z,71.57
2022-09-17T00:10:49.662Z,71.37
2022-09-17T00:11:49.814Z,71.47
2022-09-17T00:12:50.004Z,71.57
2022-09-17T00:13:50.417Z,71.77
2022-09-17T00:14:50.337Z,71.37
2022-09-17T00:15:50.530Z,71.57
2022-09-17T00:16:50.667Z,71.47
2022-09-17T00:17:50.855Z,71.88
2022-09-17T00:18:51.074Z,71.37
2022-09-17T00:19:51.224Z,71.26
2022-09-17T00:20:51.423Z,71.37
2022-09-17T00:21:51.584Z,71.47
2022-09-17T00:22:51.749Z,71.37
2022-09-17T00:23:51.922Z,71.26
2022-09-17T00:24:52.074Z,71.57
2022-09-17T00:25:52.286Z,71.47
2022-09-17T00:26:52.444Z,71.67
2022-09-17T00:27:52.635Z,71.67
2022-09-17T00:28:52.813Z,71.67
2022-09-17T00:29:52.973Z,71.77
2022-09-17T00:30:53.176Z,71.47
2022-09-17T00:31:53.324Z,71.57
2022-09-17T00:32:53.477Z,71.57
2022-09-17T00:33:53.645Z,71.57
2022-09-17T00:34:53.842Z,71.77
2022-09-17T00:35:53.998Z,71.77
2022-09-17T00:36:54.156Z,71.47
2022-09-17T00:37:54.328Z,71.47
2022-09-17T00:38:54.484Z,71.26
2022-09-17T00:39:54.678Z,71.37
2022-09-17T00:40:54.834Z,71.37
2022-09-17T00:41:55.024Z,71.47
2022-09-17T00:42:55.184Z,71.57
2022-09-17T00:43:55.415Z,71.26
2022-09-17T00:44:55.566Z,71.37
2022-09-17T00:45:55.764Z,71.06
2022-09-17T00:46:55.979Z,71.47
2022-09-17T00:47:56.125Z,71.26
2022-09-17T00:48:56.287Z,71.16
2022-09-17T00:49:56.443Z,71.16
2022-09-17T00:50:56.604Z,71.13
2022-09-17T00:52:00.271Z,71.37
2022-09-17T00:52:56.944Z,71.23
2022-09-17T00:53:57.154Z,71.23
2022-09-17T00:54:57.322Z,71.23
2022-09-17T00:55:57.474Z,71.53
2022-09-17T00:56:57.631Z,71.13
2022-09-17T00:57:57.800Z,71.33
2022-09-17T00:58:58.006Z,71.64
2022-09-17T00:59:58.148Z,71.13
2022-09-17T01:00:58.370Z,71.33
2022-09-17T01:01:58.549Z,71.16
2022-09-17T01:02:58.681Z,71.37
2022-09-17T01:03:58.853Z,71.33
2022-09-17T01:04:59.022Z,71.33
2022-09-17T01:05:59.217Z,71.26
2022-09-17T01:06:59.378Z,71.23
2022-09-17T01:07:59.536Z,71.13
2022-09-17T01:08:59.708Z,71.23
2022-09-17T01:09:59.874Z,71.33
2022-09-17T01:11:00.024Z,71.44
2022-09-17T01:12:00.232Z,71.23
2022-09-17T01:13:00.384Z,71.33
2022-09-17T01:14:00.584Z,71.13
2022-09-17T01:15:00.744Z,71.03
2022-09-17T01:16:01.023Z,71.03
2022-09-17T01:17:01.117Z,70.83
2022-09-17T01:18:01.315Z,70.93
2022-09-17T01:19:01.484Z,71.23
2022-09-17T01:20:01.662Z,71.03
2022-09-17T01:21:01.811Z,70.93
2022-09-17T01:22:02.014Z,71.03
2022-09-17T01:23:02.172Z,70.93
2022-09-17T01:24:02.344Z,71.03
2022-09-17T01:25:02.503Z,71.03
2022-09-17T01:26:02.664Z,71.23
2022-09-17T01:27:02.824Z,71.13
2022-09-17T01:28:03.022Z,71.03
2022-09-17T01:29:03.193Z,70.69
2022-09-17T01:30:03.358Z,70.69
2022-09-17T01:31:03.550Z,70.79
2022-09-17T01:32:03.684Z,70.79
2022-09-17T01:33:03.844Z,70.79
2022-09-17T01:34:04.054Z,70.69
2022-09-17T01:35:04.214Z,70.59
2022-09-17T01:36:04.405Z,70.59
2022-09-17T01:37:04.563Z,70.59
2022-09-17T01:38:04.771Z,70.69
2022-09-17T01:39:04.944Z,70.59
2022-09-17T01:40:05.145Z,70.59
2022-09-17T01:41:05.275Z,70.39
2022-09-17T01:42:05.472Z,70.49
2022-09-17T01:43:05.624Z,70.18
2022-09-17T01:44:05.834Z,70.46
2022-09-17T01:45:05.984Z,70.49
2022-09-17T01:46:06.213Z,70.49
2022-09-17T01:47:06.335Z,70.49
2022-09-17T01:48:06.523Z,70.59
2022-09-17T01:49:06.701Z,70.39
2022-09-17T01:50:06.855Z,70.79
2022-09-17T01:51:07.014Z,70.59
2022-09-17T01:52:07.214Z,70.79
2022-09-17T01:53:07.364Z,70.79
2022-09-17T01:54:07.575Z,70.96
2022-09-17T01:55:07.729Z,70.56
2022-09-17T01:56:07.922Z,70.46
2022-09-17T01:57:08.074Z,70.46
2022-09-17T01:58:08.282Z,70.46
2022-09-17T01:59:08.452Z,70.25
2022-09-17T02:00:08.616Z,70.36
2022-09-17T02:01:08.821Z,70.15
2022-09-17T02:02:08.987Z,70.15
2022-09-17T02:03:09.104Z,70.05
2022-09-17T02:04:09.315Z,69.85
2022-09-17T02:05:09.474Z,69.85
2022-09-17T02:06:09.674Z,69.75
2022-09-17T02:07:09.826Z,69.85
2022-09-17T02:08:10.015Z,70.15
2022-09-17T02:09:13.742Z,70.15
2022-09-17T02:10:11.364Z,70.36
2022-09-17T02:11:10.554Z,70.46
2022-09-17T02:12:10.721Z,70.15
2022-09-17T02:13:10.874Z,70.15
2022-09-17T02:14:11.055Z,70.25
2022-09-17T02:15:11.215Z,70.25
2022-09-17T02:16:11.411Z,70.25
2022-09-17T02:17:11.554Z,70.36
2022-09-17T02:18:11.765Z,70.56
2022-09-17T02:19:11.924Z,70.36
2022-09-17T02:20:12.085Z,70.25
2022-09-17T02:21:12.244Z,70.15
2022-09-17T02:22:12.404Z,70.46
2022-09-17T02:23:12.574Z,70.36
2022-09-17T02:24:12.735Z,70.36
2022-09-17T02:25:12.893Z,70.15
2022-09-17T02:26:13.094Z,70.36
2022-09-17T02:27:13.257Z,70.05
2022-09-17T02:28:13.472Z,70.15
2022-09-17T02:29:13.624Z,69.95
2022-09-17T02:30:13.794Z,70.05
2022-09-17T02:31:14.002Z,70.25
2022-09-17T02:32:14.147Z,69.85
2022-09-17T02:33:14.315Z,69.95
2022-09-17T02:34:14.474Z,69.85
2022-09-17T02:35:14.654Z,69.75
2022-09-17T02:36:14.851Z,69.85
2022-09-17T02:37:15.005Z,69.95
2022-09-17T02:38:15.201Z,69.75
2022-09-17T02:39:15.384Z,69.65
2022-09-17T02:40:15.598Z,69.65
2022-09-17T02:41:15.725Z,69.95
2022-09-17T02:42:15.884Z,69.75
2022-09-17T02:43:16.051Z,69.75
2022-09-17T02:44:16.215Z,69.45
2022-09-17T02:45:16.374Z,69.65
2022-09-17T02:46:16.590Z,69.75
2022-09-17T02:47:16.722Z,69.55
2022-09-17T02:48:16.944Z,69.51
2022-09-17T02:49:17.095Z,69.51
2022-09-17T02:50:17.293Z,69.45
2022-09-17T02:51:17.455Z,69.34
2022-09-17T02:52:17.604Z,69.55
2022-09-17T02:53:17.786Z,69.55
2022-09-17T02:54:17.944Z,69.62
2022-09-17T02:55:18.094Z,69.42
2022-09-17T02:56:18.315Z,69.51
2022-09-17T02:57:18.474Z,69.42
2022-09-17T02:58:18.656Z,69.31
2022-09-17T02:59:18.813Z,69.42
2022-09-17T03:00:19.014Z,69.62
2022-09-17T03:01:19.224Z,69.42
2022-09-17T03:02:19.416Z,69.62
2022-09-17T03:03:19.505Z,69.62
2022-09-17T03:04:19.666Z,69.62
2022-09-17T03:05:19.832Z,69.51
2022-09-17T03:06:20.025Z,69.51
2022-09-17T03:07:20.189Z,69.51
2022-09-17T03:08:20.368Z,69.11
2022-09-17T03:09:20.534Z,69.31
2022-09-17T03:10:20.722Z,69.42
2022-09-17T03:11:20.874Z,69.62
2022-09-17T03:12:21.065Z,69.31
2022-09-17T03:13:21.264Z,69.51
2022-09-17T03:14:21.424Z,69.31
2022-09-17T03:15:21.586Z,69.31
2022-09-17T03:16:21.824Z,69.62
2022-09-17T03:17:21.936Z,69.42
2022-09-17T03:18:22.145Z,69.65
2022-09-17T03:19:22.304Z,70.05
2022-09-17T03:20:22.486Z,70.05
2022-09-17T03:21:22.615Z,70.36
2022-09-17T03:22:22.813Z,70.46
2022-09-17T03:23:23.016Z,70.25
2022-09-17T03:24:23.137Z,70.46
2022-09-17T03:25:23.294Z,70.15
2022-09-17T03:26:23.466Z,70.05
2022-09-17T03:27:23.624Z,70.05
2022-09-17T03:28:23.806Z,70.05
2022-09-17T03:29:23.964Z,70.15
2022-09-17T03:30:24.125Z,69.95
2022-09-17T03:31:24.320Z,70.15
2022-09-17T03:32:24.475Z,69.85
2022-09-17T03:33:24.646Z,70.05
2022-09-17T03:34:24.805Z,70.05
2022-09-17T03:35:24.995Z,70.05
2022-09-17T03:36:25.135Z,70.15
2022-09-17T03:37:25.289Z,69.85
2022-09-17T03:38:25.507Z,70.15
2022-09-17T03:39:25.667Z,69.95
2022-09-17T03:40:25.877Z,69.75
2022-09-17T03:41:26.003Z,69.85
2022-09-17T03:42:26.195Z,69.95
2022-09-17T03:43:26.374Z,70.05
2022-09-17T03:44:26.534Z,69.95
2022-09-17T03:45:26.685Z,69.95
2022-09-17T03:46:26.884Z,69.95
2022-09-17T03:47:27.006Z,69.85
2022-09-17T03:48:27.215Z,69.85
2022-09-17T03:49:27.375Z,70.05
2022-09-17T03:50:27.535Z,69.85
2022-09-17T03:51:27.705Z,69.85
2022-09-17T03:52:27.867Z,69.95
2022-09-17T03:53:28.035Z,69.85
2022-09-17T03:54:28.202Z,69.95
2022-09-17T03:55:28.358Z,70.15
2022-09-17T03:56:28.555Z,69.95
2022-09-17T03:57:28.716Z,69.75
2022-09-17T03:58:28.895Z,69.95
2022-09-17T03:59:29.055Z,69.95
2022-09-17T04:00:29.216Z,69.95
2022-09-17T04:01:29.423Z,70.05
2022-09-17T04:02:29.650Z,69.85
2022-09-17T04:03:29.746Z,69.85
2022-09-17T04:04:29.938Z,70.05
2022-09-17T04:05:30.095Z,70.15
2022-09-17T04:06:30.255Z,70.15
2022-09-17T04:07:30.425Z,70.25
2022-09-17T04:08:30.585Z,70.36
2022-09-17T04:09:30.745Z,70.36
2022-09-17T04:10:30.905Z,70.36
2022-09-17T04:11:31.065Z,70.56
2022-09-17T04:12:31.245Z,70.36
2022-09-17T04:13:31.397Z,70.46
2022-09-17T04:14:31.587Z,70.59
2022-09-17T04:15:31.797Z,70.79
2022-09-17T04:16:31.978Z,70.79
2022-09-17T04:17:32.125Z,70.69
2022-09-17T04:18:32.343Z,70.79
2022-09-17T04:19:32.477Z,70.79
2022-09-17T04:20:32.625Z,70.79
2022-09-17T04:21:32.789Z,70.76
2022-09-17T04:22:32.995Z,71.00
2022-09-17T04:23:33.148Z,70.89
2022-09-17T04:24:33.343Z,70.76
2022-09-17T04:25:33.496Z,70.86
2022-09-17T04:26:33.688Z,70.76
2022-09-17T04:27:33.875Z,70.66
2022-09-17T04:28:34.015Z,70.66
2022-09-17T04:29:34.186Z,70.76
2022-09-17T04:30:34.376Z,70.76
2022-09-17T04:31:34.667Z,70.66
2022-09-17T04:32:34.735Z,70.96
2022-09-17T04:33:34.875Z,70.86
2022-09-17T04:34:35.055Z,70.76
2022-09-17T04:35:35.236Z,70.76
2022-09-17T04:36:35.424Z,70.76
2022-09-17T04:37:35.625Z,70.46
2022-09-17T04:38:35.765Z,70.46
2022-09-17T04:39:35.945Z,70.46
2022-09-17T04:40:36.190Z,70.56
2022-09-17T04:41:36.295Z,70.56
2022-09-17T04:42:36.486Z,70.76
2022-09-17T04:43:36.639Z,70.93
2022-09-17T04:44:36.816Z,70.62
2022-09-17T04:45:37.001Z,70.62
2022-09-17T04:46:37.195Z,70.73
2022-09-17T04:47:37.366Z,70.46
2022-09-17T04:48:37.495Z,70.46
2022-09-17T04:49:37.686Z,70.76
2022-09-17T04:50:37.865Z,70.53
2022-09-17T04:51:38.047Z,70.73
2022-09-17T04:52:38.216Z,70.56
2022-09-17T04:53:38.364Z,70.86
2022-09-17T04:54:38.545Z,70.96
2022-09-17T04:55:38.725Z,70.86
2022-09-17T04:56:38.896Z,71.13
2022-09-17T04:57:39.072Z,70.96
2022-09-17T04:58:39.245Z,70.86
2022-09-17T04:59:39.416Z,70.76
2022-09-17T05:00:39.632Z,70.93
2022-09-17T05:01:39.850Z,71.13
2022-09-17T05:02:39.928Z,70.93
2022-09-17T05:03:40.105Z,70.93
2022-09-17T05:04:40.255Z,71.23
2022-09-17T05:05:40.445Z,71.23
2022-09-17T05:06:41.620Z,71.53
2022-09-17T05:07:40.796Z,71.64
2022-09-17T05:08:40.947Z,71.84
2022-09-17T05:09:41.135Z,72.14
2022-09-17T05:10:41.325Z,71.87
2022-09-17T05:11:41.527Z,71.94
2022-09-17T05:12:41.672Z,72.24
2022-09-17T05:13:41.849Z,72.34
2022-09-17T05:14:42.036Z,72.55
2022-09-17T05:15:42.295Z,72.44
2022-09-17T05:16:42.413Z,72.75
2022-09-17T05:17:42.557Z,73.05
2022-09-17T05:18:42.736Z,73.25
2022-09-17T05:19:42.915Z,73.46
2022-09-17T05:20:43.096Z,73.35
2022-09-17T05:21:43.305Z,73.66
2022-09-17T05:22:43.438Z,73.59
2022-09-17T05:23:43.626Z,73.59
2022-09-17T05:24:43.796Z,73.69
2022-09-17T05:25:43.944Z,73.59
2022-09-17T05:26:44.145Z,73.59
2022-09-17T05:27:44.286Z,73.52
2022-09-17T05:28:44.475Z,74.13
2022-09-17T05:29:44.667Z,74.33
2022-09-17T05:30:44.815Z,74.33
2022-09-17T05:31:45.054Z,74.33
2022-09-17T05:32:45.162Z,74.13
2022-09-17T05:33:45.325Z,74.23
2022-09-17T05:34:45.509Z,74.43
2022-09-17T05:35:45.695Z,74.54
2022-09-17T05:36:45.886Z,74.43
2022-09-17T05:37:46.058Z,74.13
2022-09-17T05:38:46.282Z,74.63
2022-09-17T05:39:46.418Z,74.23
2022-09-17T05:40:47.581Z,74.13
2022-09-17T05:41:46.807Z,74.33
2022-09-17T05:42:46.957Z,74.33
2022-09-17T05:43:47.147Z,74.03
2022-09-17T05:44:47.335Z,74.03
2022-09-17T05:45:47.516Z,74.13
2022-09-17T05:46:48.300Z,74.03
2022-09-17T05:47:47.847Z,74.03
2022-09-17T05:48:48.006Z,73.93
2022-09-17T05:49:48.204Z,73.90
2022-09-17T05:50:48.382Z,73.90
2022-09-17T05:51:48.556Z,73.59
2022-09-17T05:52:48.716Z,73.69
2022-09-17T05:53:49.043Z,73.39
2022-09-17T05:54:49.058Z,73.28
2022-09-17T05:55:49.225Z,73.19
2022-09-17T05:56:49.415Z,72.99
2022-09-17T05:57:49.557Z,72.88
2022-09-17T05:58:49.835Z,72.75
2022-09-17T05:59:49.926Z,72.75
2022-09-17T06:00:50.127Z,72.55
2022-09-17T06:01:50.326Z,72.55
2022-09-17T06:02:50.467Z,72.04
2022-09-17T06:03:50.607Z,72.24
2022-09-17T06:04:50.786Z,72.04
2022-09-17T06:05:50.976Z,72.24
2022-09-17T06:06:51.175Z,71.84
2022-09-17T06:07:51.325Z,71.94
2022-09-17T06:08:51.489Z,72.14
2022-09-17T06:09:51.655Z,71.53
2022-09-17T06:10:51.837Z,71.53
2022-09-17T06:11:52.046Z,71.53
2022-09-17T06:12:52.216Z,71.53
2022-09-17T06:13:52.405Z,71.50
2022-09-17T06:14:52.586Z,71.60
2022-09-17T06:15:52.780Z,71.40
2022-09-17T06:16:52.935Z,71.20
2022-09-17T06:17:53.095Z,70.19
2022-09-17T06:18:53.251Z,70.39
2022-09-17T06:19:53.416Z,70.29
2022-09-17T06:20:53.599Z,70.29
2022-09-17T06:21:53.796Z,70.89
2022-09-17T06:22:53.946Z,70.46
2022-09-17T06:23:54.126Z,69.85
2022-09-17T06:24:54.296Z,69.82
2022-09-17T06:25:54.476Z,68.91
2022-09-17T06:26:54.667Z,68.57
2022-09-17T06:27:54.816Z,68.37
2022-09-17T06:28:54.996Z,68.37
2022-09-17T06:29:55.194Z,67.67
2022-09-17T06:30:55.367Z,67.27
2022-09-17T06:31:55.727Z,67.57
2022-09-17T06:32:55.718Z,67.16
2022-09-17T06:33:58.427Z,67.16
2022-09-17T06:34:56.057Z,67.16
2022-09-17T06:35:56.237Z,67.77
2022-09-17T06:36:56.416Z,67.03
2022-09-17T06:37:56.566Z,66.63
2022-09-17T06:38:56.720Z,65.99
2022-09-17T06:39:56.955Z,65.49
2022-09-17T06:40:57.069Z,65.69
2022-09-17T06:41:57.257Z,65.76
2022-09-17T06:42:57.425Z,65.26
2022-09-17T06:43:57.707Z,64.95
2022-09-17T06:44:59.335Z,64.62
2022-09-17T06:45:57.945Z,63.71
2022-09-17T06:46:58.171Z,64.62
2022-09-17T06:47:58.324Z,63.82
2022-09-17T06:48:58.504Z,63.28
2022-09-17T06:49:58.657Z,63.28
2022-09-17T06:50:58.817Z,63.08
2022-09-17T06:51:59.018Z,63.08
2022-09-17T06:52:59.160Z,63.18
2022-09-17T06:53:59.357Z,63.48
2022-09-17T06:54:59.540Z,62.98
2022-09-17T06:56:05.311Z,63.35
2022-09-17T06:57:00.927Z,62.55
2022-09-17T06:58:00.077Z,62.85
2022-09-17T06:59:00.338Z,63.05
2022-09-17T07:00:00.427Z,63.42
2022-09-17T07:01:00.741Z,62.62
2022-09-17T07:02:00.859Z,61.69
2022-09-17T07:03:00.958Z,61.58
2022-09-17T07:04:01.140Z,61.15
2022-09-17T07:05:01.306Z,60.42
2022-09-17T07:06:01.498Z,60.52
2022-09-17T07:07:01.680Z,60.62
2022-09-17T07:08:01.858Z,60.52
2022-09-17T07:09:02.048Z,59.89
2022-09-17T07:10:02.209Z,59.12
2022-09-17T07:11:02.377Z,59.12
2022-09-17T07:12:02.508Z,59.45
2022-09-17T07:13:02.707Z,59.45
2022-09-17T07:14:02.907Z,59.95
2022-09-17T07:15:03.040Z,60.25
2022-09-17T07:16:03.309Z,60.45
2022-09-17T07:17:03.358Z,60.12
2022-09-17T07:18:03.531Z,58.72
2022-09-17T07:19:03.728Z,59.22
2022-09-17T07:20:03.883Z,59.01
2022-09-17T07:21:04.049Z,59.32
2022-09-17T07:22:04.218Z,59.52
2022-09-17T07:23:04.369Z,59.52
2022-09-17T07:24:04.559Z,60.02
2022-09-17T07:25:04.739Z,59.22
2022-09-17T07:26:04.949Z,59.12
2022-09-17T07:27:05.088Z,58.72
2022-09-17T07:28:05.279Z,58.42
2022-09-17T07:29:05.429Z,58.31
2022-09-17T07:30:05.591Z,58.42
2022-09-17T07:31:05.865Z,58.04
2022-09-17T07:32:05.942Z,58.24
2022-09-17T07:33:06.119Z,58.54
2022-09-17T07:34:06.302Z,58.67
2022-09-17T07:35:06.479Z,58.77
2022-09-17T07:36:06.670Z,59.27
2022-09-17T07:37:06.845Z,58.77
2022-09-17T07:38:07.011Z,59.17
2022-09-17T07:39:07.233Z,59.08
2022-09-17T07:40:07.435Z,59.67
2022-09-17T07:41:07.570Z,59.50
2022-09-17T07:42:07.747Z,59.41
2022-09-17T07:43:07.899Z,59.91
2022-09-17T07:44:08.075Z,60.11
2022-09-17T07:45:08.254Z,60.31
2022-09-17T07:46:08.500Z,59.70
2022-09-17T07:47:08.601Z,59.20
2022-09-17T07:48:08.781Z,59.70
2022-09-17T07:49:08.958Z,59.17
2022-09-17T07:50:09.141Z,59.58
2022-09-17T07:51:09.343Z,59.38
2022-09-17T07:52:09.493Z,58.47
2022-09-17T07:53:09.673Z,58.57
2022-09-17T07:54:09.871Z,58.47
2022-09-17T07:55:10.139Z,58.24
2022-09-17T07:56:11.983Z,57.87
2022-09-17T07:57:10.401Z,58.24
2022-09-17T07:58:10.591Z,57.94
2022-09-17T07:59:10.771Z,58.14
2022-09-17T08:00:10.960Z,58.14
2022-09-17T08:01:11.141Z,57.54
2022-09-17T08:02:11.411Z,57.44
2022-09-17T08:03:11.502Z,57.41
2022-09-17T08:04:11.621Z,56.81
2022-09-17T08:05:11.802Z,57.01
2022-09-17T08:06:12.009Z,56.91
2022-09-17T08:07:12.152Z,57.21
2022-09-17T08:08:12.331Z,56.08
2022-09-17T08:09:12.511Z,56.08
2022-09-17T08:10:12.662Z,55.98
2022-09-17T08:11:12.846Z,56.08
2022-09-17T08:12:12.983Z,56.18
2022-09-17T08:13:13.180Z,55.88
2022-09-17T08:14:13.362Z,55.75
2022-09-17T08:15:13.513Z,55.75
2022-09-17T08:16:13.765Z,55.35
2022-09-17T08:17:13.882Z,54.45
2022-09-17T08:18:14.063Z,55.02
2022-09-17T08:19:14.215Z,54.72
2022-09-17T08:20:14.392Z,54.30
2022-09-17T08:21:14.583Z,54.10
2022-09-17T08:22:14.742Z,53.89
2022-09-17T08:23:14.964Z,53.80
2022-09-17T08:24:15.110Z,53.50
2022-09-17T08:25:15.272Z,53.80
2022-09-17T08:26:15.461Z,54.00
2022-09-17T08:27:15.643Z,53.59
2022-09-17T08:28:15.799Z,53.62
2022-09-17T08:29:15.963Z,53.92
2022-09-17T08:30:16.167Z,54.35
2022-09-17T08:31:16.912Z,54.68
2022-09-17T08:32:16.539Z,54.88
2022-09-17T08:33:16.713Z,54.88
2022-09-17T08:34:16.904Z,54.47
2022-09-17T08:35:17.074Z,54.52
2022-09-17T08:36:17.290Z,53.14
2022-09-17T08:37:17.446Z,51.29
2022-09-17T08:38:17.606Z,51.09
2022-09-17T08:39:17.764Z,51.32
2022-09-17T08:40:17.977Z,51.74
2022-09-17T08:41:18.135Z,52.04
2022-09-17T08:42:18.332Z,51.72
2022-09-17T08:43:18.465Z,51.29
2022-09-17T08:44:18.655Z,49.37
2022-09-17T08:45:18.818Z,49.67
2022-09-17T08:46:19.032Z,49.27
2022-09-17T08:47:19.186Z,48.38
2022-09-17T08:48:19.335Z,46.64
2022-09-17T08:49:19.528Z,46.79
2022-09-17T08:50:19.727Z,46.03
2022-09-17T08:51:20.435Z,43.78
2022-09-17T08:52:20.056Z,42.33
2022-09-17T08:53:20.216Z,39.99
2022-09-17T08:54:20.426Z,39.61
2022-09-17T08:55:20.563Z,39.85
2022-09-17T08:56:20.776Z,41.28
2022-09-17T08:57:20.946Z,42.41
2022-09-17T08:58:21.170Z,43.02
2022-09-17T08:59:21.895Z,43.28
2022-09-17T09:00:21.436Z,42.19
2022-09-17T09:01:21.693Z,42.29
2022-09-17T09:02:21.917Z,42.80
2022-09-17T09:03:21.973Z,42.37
2022-09-17T09:04:22.116Z,43.41
2022-09-17T09:05:22.285Z,44.72
2022-09-17T09:06:22.488Z,44.20
2022-09-17T09:07:22.657Z,43.54
2022-09-17T09:08:22.866Z,41.66
2022-09-17T09:09:23.017Z,38.70
2022-09-17T09:10:23.150Z,37.64
2022-09-17T09:11:23.387Z,36.40
2022-09-17T09:12:23.531Z,34.95
2022-09-17T09:13:23.719Z,33.95
2022-09-17T09:14:23.879Z,34.18
2022-09-17T09:15:24.080Z,34.08
2022-09-17T09:16:24.314Z,33.36
2022-09-17T09:17:24.437Z,33.74
2022-09-17T09:18:24.610Z,33.33
2022-09-17T09:19:24.770Z,33.05
2022-09-17T09:20:24.953Z,33.65
2022-09-17T09:21:25.140Z,33.67
2022-09-17T09:22:25.331Z,34.18
2022-09-17T09:23:25.511Z,33.69
2022-09-17T09:24:25.681Z,34.22
2022-09-17T09:25:25.849Z,35.14
2022-09-17T09:26:26.012Z,35.49
2022-09-17T09:27:26.182Z,36.21
2022-09-17T09:28:26.353Z,36.98
2022-09-17T09:29:26.543Z,35.63
2022-09-17T09:30:26.730Z,34.67
2022-09-17T09:31:26.940Z,33.43
2022-09-17T09:32:27.074Z,32.92
2022-09-17T09:33:27.264Z,32.95
2022-09-17T09:34:27.463Z,34.00
2022-09-17T09:35:27.636Z,34.56
2022-09-17T09:36:27.793Z,36.41
2022-09-17T09:37:27.979Z,37.35
2022-09-17T09:38:28.144Z,38.07
2022-09-17T09:39:28.341Z,39.77
2022-09-17T09:40:28.548Z,38.48
2022-09-17T09:41:28.685Z,38.81
2022-09-17T09:42:28.861Z,39.49
2022-09-17T09:43:41.184Z,39.51
2022-09-17T09:44:30.215Z,39.51
2022-09-17T09:45:29.405Z,39.83
2022-09-17T09:46:29.603Z,40.52
2022-09-17T09:47:29.759Z,40.09
2022-09-17T09:48:29.924Z,38.64
2022-09-17T09:49:30.114Z,37.22
2022-09-17T09:50:48.359Z,37.75
2022-09-17T09:51:31.466Z,38.48
2022-09-17T09:52:30.616Z,39.23
2022-09-17T09:53:30.788Z,40.16
2022-09-17T09:54:30.996Z,40.76
2022-09-17T09:55:31.157Z,41.34
2022-09-17T09:56:31.327Z,40.33
2022-09-17T09:57:31.496Z,40.72
2022-09-17T09:58:31.650Z,40.26
2022-09-17T09:59:31.807Z,40.68
2022-09-17T10:00:31.997Z,41.52
2022-09-17T10:01:32.230Z,42.73
2022-09-17T10:02:32.431Z,42.95
2022-09-17T10:03:32.525Z,43.55
2022-09-17T10:04:32.721Z,44.17
2022-09-17T10:05:32.878Z,44.49
2022-09-17T10:06:33.048Z,44.91
2022-09-17T10:07:33.249Z,45.73
2022-09-17T10:08:33.418Z,45.95
2022-09-17T10:09:33.598Z,46.05
2022-09-17T10:10:33.767Z,46.05
2022-09-17T10:11:33.966Z,46.95
2022-09-17T10:12:34.110Z,46.35
2022-09-17T10:13:34.289Z,46.37
2022-09-17T10:14:34.476Z,46.07
2022-09-17T10:15:34.650Z,46.57
2022-09-17T10:16:34.868Z,46.57
2022-09-17T10:17:34.970Z,46.47
2022-09-17T10:18:35.140Z,46.37
2022-09-17T10:19:35.319Z,46.05
2022-09-17T10:20:35.509Z,45.67
2022-09-17T10:21:35.660Z,45.87
2022-09-17T10:22:35.829Z,45.77
2022-09-17T10:23:36.020Z,45.47
2022-09-17T10:24:36.167Z,45.87
2022-09-17T10:25:36.370Z,46.37
2022-09-17T10:26:36.541Z,46.27
2022-09-17T10:27:36.719Z,45.67
2022-09-17T10:28:36.899Z,45.47
2022-09-17T10:29:37.060Z,45.77
2022-09-17T10:30:37.240Z,46.47
2022-09-17T10:31:37.443Z,46.37
2022-09-17T10:32:37.581Z,46.07
2022-09-17T10:33:37.744Z,45.67
2022-09-17T10:34:37.891Z,46.07
2022-09-17T10:35:38.091Z,46.17
2022-09-17T10:36:38.284Z,46.07
2022-09-17T10:37:38.411Z,45.97
2022-09-17T10:38:38.591Z,45.47
2022-09-17T10:39:38.772Z,45.97
2022-09-17T10:40:39.023Z,45.67
2022-09-17T10:41:39.117Z,45.97
2022-09-17T10:42:39.303Z,45.97
2022-09-17T10:43:39.472Z,46.07
2022-09-17T10:44:39.631Z,46.25
2022-09-17T10:45:39.823Z,44.25
2022-09-17T10:46:39.994Z,44.85
2022-09-17T10:47:40.152Z,44.83
2022-09-17T10:48:40.331Z,44.63
2022-09-17T10:49:40.483Z,44.13
2022-09-17T10:50:40.691Z,43.71
2022-09-17T10:51:40.843Z,43.71
2022-09-17T10:52:41.023Z,43.21
2022-09-17T10:53:41.203Z,43.61
2022-09-17T10:54:41.377Z,43.21
2022-09-17T10:55:41.563Z,43.43
2022-09-17T10:56:41.743Z,44.35
2022-09-17T10:57:41.930Z,44.25
2022-09-17T10:58:42.550Z,44.47
2022-09-17T10:59:42.274Z,45.09
2022-09-17T11:00:42.483Z,45.81
2022-09-17T11:01:42.769Z,46.62
2022-09-17T11:02:42.856Z,48.74
2022-09-17T11:03:43.005Z,48.74
2022-09-17T11:04:43.189Z,49.57
2022-09-17T11:05:43.374Z,49.37
2022-09-17T11:06:43.535Z,49.08
2022-09-17T11:07:43.695Z,48.79
2022-09-17T11:08:43.884Z,48.89
2022-09-17T11:09:44.076Z,48.89
2022-09-17T11:10:44.267Z,49.79
2022-09-17T11:11:44.442Z,49.51
2022-09-17T11:12:44.615Z,50.01
2022-09-17T11:13:44.807Z,49.61
2022-09-17T11:14:44.971Z,49.31
2022-09-17T11:15:47.683Z,48.61
2022-09-17T11:16:46.376Z,48.91
2022-09-17T11:17:45.493Z,48.69
2022-09-17T11:18:45.655Z,48.89
2022-09-17T11:19:45.835Z,48.08
2022-09-17T11:20:46.025Z,47.78
2022-09-17T11:21:46.205Z,47.49
2022-09-17T11:22:46.385Z,48.38
2022-09-17T11:23:46.640Z,47.88
2022-09-17T11:24:46.729Z,46.88
2022-09-17T11:25:46.930Z,47.49
2022-09-17T11:26:47.065Z,47.28
2022-09-17T11:27:47.246Z,46.78
2022-09-17T11:28:47.426Z,46.98
2022-09-17T11:29:47.606Z,47.08
2022-09-17T11:30:47.805Z,47.49
2022-09-17T11:31:47.984Z,46.98
2022-09-17T11:32:48.128Z,47.19
2022-09-17T11:33:48.307Z,46.88
2022-09-17T11:34:48.486Z,47.19
2022-09-17T11:35:48.687Z,47.46
2022-09-17T11:36:48.826Z,46.66
2022-09-17T11:37:49.023Z,46.46
2022-09-17T11:38:49.208Z,46.26
2022-09-17T11:39:49.549Z,46.36
2022-09-17T11:40:49.507Z,46.26
2022-09-17T11:41:49.687Z,45.48
2022-09-17T11:42:49.867Z,46.16
2022-09-17T11:43:50.047Z,45.46
2022-09-17T11:44:50.227Z,46.26
2022-09-17T11:45:50.425Z,46.16
2022-09-17T11:46:50.595Z,45.56
2022-09-17T11:47:50.797Z,45.86
2022-09-17T11:48:50.907Z,46.16
2022-09-17T11:49:51.087Z,45.16
2022-09-17T11:50:51.285Z,44.66
2022-09-17T11:51:51.448Z,45.04
2022-09-17T11:52:51.619Z,44.24
2022-09-17T11:53:51.809Z,43.84
2022-09-17T11:54:51.988Z,44.43
2022-09-17T11:55:52.188Z,44.01
2022-09-17T11:56:52.321Z,44.71
2022-09-17T11:57:52.506Z,44.71
2022-09-17T11:58:52.679Z,44.42
2022-09-17T11:59:52.868Z,44.82
2022-09-17T12:00:53.061Z,44.42
2022-09-17T12:01:53.259Z,44.62
2022-09-17T12:02:53.426Z,45.01
2022-09-17T12:03:53.560Z,45.12
2022-09-17T12:04:53.741Z,46.31
2022-09-17T12:05:53.940Z,48.72
2022-09-17T12:06:54.088Z,48.42
2022-09-17T12:07:54.259Z,48.34
2022-09-17T12:08:54.439Z,47.44
2022-09-17T12:09:54.619Z,46.94
2022-09-17T12:10:54.828Z,47.04
2022-09-17T12:11:54.959Z,46.54
2022-09-17T12:12:55.146Z,46.56
2022-09-17T12:13:55.321Z,46.66
2022-09-17T12:14:55.513Z,46.26
2022-09-17T12:15:55.786Z,46.98
2022-09-17T12:16:55.858Z,47.28
2022-09-17T12:18:14.294Z,47.58
2022-09-17T12:18:57.191Z,47.69
2022-09-17T12:19:56.387Z,46.78
2022-09-17T12:20:56.571Z,47.28
2022-09-17T12:21:56.746Z,47.99
2022-09-17T12:22:56.913Z,47.38
2022-09-17T12:23:57.090Z,47.99
2022-09-17T12:24:57.271Z,47.99
2022-09-17T12:25:57.471Z,47.99
2022-09-17T12:26:57.610Z,47.08
2022-09-17T12:27:57.792Z,46.38
2022-09-17T12:28:57.975Z,46.98
2022-09-17T12:30:00.467Z,47.69
2022-09-17T12:30:58.366Z,46.98
2022-09-17T12:31:58.489Z,47.19
2022-09-17T12:32:58.670Z,47.16
2022-09-17T12:33:58.849Z,46.76
2022-09-17T12:34:59.022Z,46.64
2022-09-17T12:36:04.340Z,46.74
2022-09-17T12:37:00.371Z,46.22
2022-09-17T12:37:59.551Z,44.71
2022-09-17T12:39:03.046Z,44.21
2022-09-17T12:39:59.902Z,43.41
2022-09-17T12:41:00.103Z,43.12
2022-09-17T12:42:00.243Z,43.21
2022-09-17T12:43:00.426Z,43.01
2022-09-17T12:44:00.668Z,42.71
2022-09-17T12:45:00.754Z,42.54
2022-09-17T12:46:00.953Z,42.74
2022-09-17T12:47:01.176Z,42.43
2022-09-17T12:48:01.283Z,43.04
2022-09-17T12:49:01.466Z,42.43
2022-09-17T12:50:01.666Z,42.85
2022-09-17T12:51:01.842Z,42.46
2022-09-17T12:52:02.012Z,42.35
2022-09-17T12:53:02.195Z,41.96
2022-09-17T12:54:02.383Z,41.35
2022-09-17T12:55:02.554Z,41.75